sensor_id;sensor_type;location;lat;lon;timestamp;P1;durP1;ratioP1;P2;durP2;ratioP2
7813;SDS011;3952;48.364;16.022;2023-10-19T00:00:21;14.40;;;13.17;;
7813;SDS011;3952;48.364;16.022;2023-10-19T00:02:50;14.07;;;12.97;;
7813;SDS011;3952;48.364;16.022;2023-10-19T00:05:17;15.23;;;13.93;;
7813;SDS011;3952;48.364;16.022;2023-10-19T00:07:45;12.93;;;11.90;;
7813;SDS011;3952;48.364;16.022;2023-10-19T00:10:11;15.37;;;13.87;;
7813;SDS011;3952;48.364;16.022;2023-10-19T00:12:42;15.17;;;13.67;;
7813;SDS011;3952;48.364;16.022;2023-10-19T00:15:09;15.53;;;14.13;;
7813;SDS011;3952;48.364;16.022;2023-10-19T00:17:40;14.60;;;13.23;;
7813;SDS011;3952;48.364;16.022;2023-10-19T00:20:10;13.93;;;12.80;;
7813;SDS011;3952;48.364;16.022;2023-10-19T00:23:13;14.37;;;12.97;;
7813;SDS011;3952;48.364;16.022;2023-10-19T00:25:43;14.27;;;13.10;;
7813;SDS011;3952;48.364;16.022;2023-10-19T00:28:16;14.83;;;13.43;;
7813;SDS011;3952;48.364;16.022;2023-10-19T00:30:42;14.80;;;13.50;;
7813;SDS011;3952;48.364;16.022;2023-10-19T00:33:12;14.57;;;13.37;;
7813;SDS011;3952;48.364;16.022;2023-10-19T00:35:43;13.87;;;12.67;;
7813;SDS011;3952;48.364;16.022;2023-10-19T00:38:16;17.90;;;14.23;;
7813;SDS011;3952;48.364;16.022;2023-10-19T00:41:04;15.17;;;13.03;;
7813;SDS011;3952;48.364;16.022;2023-10-19T00:43:37;13.57;;;12.47;;
7813;SDS011;3952;48.364;16.022;2023-10-19T00:46:08;12.67;;;11.67;;
7813;SDS011;3952;48.364;16.022;2023-10-19T00:48:41;15.20;;;13.77;;
7813;SDS011;3952;48.364;16.022;2023-10-19T00:51:14;13.40;;;12.37;;
7813;SDS011;3952;48.364;16.022;2023-10-19T00:54:04;13.10;;;12.00;;
7813;SDS011;3952;48.364;16.022;2023-10-19T00:56:35;13.03;;;12.03;;
7813;SDS011;3952;48.364;16.022;2023-10-19T00:59:06;14.83;;;13.33;;
7813;SDS011;3952;48.364;16.022;2023-10-19T01:01:38;14.90;;;13.50;;
7813;SDS011;3952;48.364;16.022;2023-10-19T01:04:11;13.17;;;12.00;;
7813;SDS011;3952;48.364;16.022;2023-10-19T01:06:45;12.80;;;11.70;;
7813;SDS011;3952;48.364;16.022;2023-10-19T01:09:26;15.67;;;14.23;;
7813;SDS011;3952;48.364;16.022;2023-10-19T01:11:53;13.53;;;12.40;;
7813;SDS011;3952;48.364;16.022;2023-10-19T01:14:26;11.93;;;11.03;;
7813;SDS011;3952;48.364;16.022;2023-10-19T01:16:55;14.73;;;13.30;;
7813;SDS011;3952;48.364;16.022;2023-10-19T01:19:25;14.33;;;12.87;;
7813;SDS011;3952;48.364;16.022;2023-10-19T01:21:52;14.23;;;13.03;;
7813;SDS011;3952;48.364;16.022;2023-10-19T01:24:27;14.00;;;12.80;;
7813;SDS011;3952;48.364;16.022;2023-10-19T01:27:05;14.03;;;12.73;;
7813;SDS011;3952;48.364;16.022;2023-10-19T01:29:34;13.30;;;12.07;;
7813;SDS011;3952;48.364;16.022;2023-10-19T01:32:03;14.67;;;13.37;;
7813;SDS011;3952;48.364;16.022;2023-10-19T01:34:33;13.60;;;12.27;;
7813;SDS011;3952;48.364;16.022;2023-10-19T01:37:02;14.70;;;13.40;;
7813;SDS011;3952;48.364;16.022;2023-10-19T01:39:31;14.07;;;12.87;;
7813;SDS011;3952;48.364;16.022;2023-10-19T01:42:01;13.83;;;12.57;;
7813;SDS011;3952;48.364;16.022;2023-10-19T01:44:29;13.00;;;11.93;;
7813;SDS011;3952;48.364;16.022;2023-10-19T01:46:56;13.90;;;12.67;;
7813;SDS011;3952;48.364;16.022;2023-10-19T01:49:25;14.30;;;12.93;;
7813;SDS011;3952;48.364;16.022;2023-10-19T01:51:53;13.53;;;12.23;;
7813;SDS011;3952;48.364;16.022;2023-10-19T01:54:20;12.83;;;11.80;;
7813;SDS011;3952;48.364;16.022;2023-10-19T01:56:52;13.30;;;12.20;;
7813;SDS011;3952;48.364;16.022;2023-10-19T01:59:21;14.10;;;12.70;;
7813;SDS011;3952;48.364;16.022;2023-10-19T02:01:52;14.20;;;12.73;;
7813;SDS011;3952;48.364;16.022;2023-10-19T02:04:20;13.87;;;12.53;;
7813;SDS011;3952;48.364;16.022;2023-10-19T02:06:48;13.77;;;12.47;;
7813;SDS011;3952;48.364;16.022;2023-10-19T02:09:15;14.73;;;13.43;;
7813;SDS011;3952;48.364;16.022;2023-10-19T02:11:47;13.87;;;12.70;;
7813;SDS011;3952;48.364;16.022;2023-10-19T02:14:17;14.97;;;13.47;;
7813;SDS011;3952;48.364;16.022;2023-10-19T02:16:45;15.27;;;13.83;;
7813;SDS011;3952;48.364;16.022;2023-10-19T02:19:16;15.10;;;13.30;;
7813;SDS011;3952;48.364;16.022;2023-10-19T02:21:45;14.63;;;13.10;;
7813;SDS011;3952;48.364;16.022;2023-10-19T02:24:14;16.17;;;14.37;;
7813;SDS011;3952;48.364;16.022;2023-10-19T02:26:40;14.53;;;13.27;;
7813;SDS011;3952;48.364;16.022;2023-10-19T02:29:08;14.57;;;13.27;;
7813;SDS011;3952;48.364;16.022;2023-10-19T02:31:36;14.13;;;13.00;;
7813;SDS011;3952;48.364;16.022;2023-10-19T02:34:05;14.50;;;13.33;;
7813;SDS011;3952;48.364;16.022;2023-10-19T02:36:32;13.27;;;12.17;;
7813;SDS011;3952;48.364;16.022;2023-10-19T02:39:03;14.27;;;12.97;;
7813;SDS011;3952;48.364;16.022;2023-10-19T02:41:32;13.73;;;12.50;;
7813;SDS011;3952;48.364;16.022;2023-10-19T02:44:02;13.70;;;12.47;;
7813;SDS011;3952;48.364;16.022;2023-10-19T02:46:34;15.10;;;13.23;;
7813;SDS011;3952;48.364;16.022;2023-10-19T02:49:04;13.33;;;12.23;;
7813;SDS011;3952;48.364;16.022;2023-10-19T02:51:36;12.33;;;11.33;;
7813;SDS011;3952;48.364;16.022;2023-10-19T02:54:03;12.73;;;11.73;;
7813;SDS011;3952;48.364;16.022;2023-10-19T02:56:32;13.00;;;11.93;;
7813;SDS011;3952;48.364;16.022;2023-10-19T02:59:01;13.80;;;12.50;;
7813;SDS011;3952;48.364;16.022;2023-10-19T03:01:29;12.47;;;11.47;;
7813;SDS011;3952;48.364;16.022;2023-10-19T03:04:00;13.37;;;12.27;;
7813;SDS011;3952;48.364;16.022;2023-10-19T03:06:29;13.77;;;12.53;;
7813;SDS011;3952;48.364;16.022;2023-10-19T03:08:58;12.83;;;11.80;;
7813;SDS011;3952;48.364;16.022;2023-10-19T03:11:28;12.63;;;11.43;;
7813;SDS011;3952;48.364;16.022;2023-10-19T03:13:55;12.97;;;11.77;;
7813;SDS011;3952;48.364;16.022;2023-10-19T03:16:22;13.70;;;12.40;;
7813;SDS011;3952;48.364;16.022;2023-10-19T03:18:53;13.13;;;11.90;;
7813;SDS011;3952;48.364;16.022;2023-10-19T03:21:21;12.13;;;11.13;;
7813;SDS011;3952;48.364;16.022;2023-10-19T03:23:52;12.20;;;11.30;;
7813;SDS011;3952;48.364;16.022;2023-10-19T03:26:18;13.30;;;12.10;;
7813;SDS011;3952;48.364;16.022;2023-10-19T03:28:56;13.17;;;11.73;;
7813;SDS011;3952;48.364;16.022;2023-10-19T03:31:28;12.60;;;11.60;;
7813;SDS011;3952;48.364;16.022;2023-10-19T03:33:58;14.17;;;12.87;;
7813;SDS011;3952;48.364;16.022;2023-10-19T03:36:31;14.60;;;13.23;;
7813;SDS011;3952;48.364;16.022;2023-10-19T03:38:58;14.43;;;13.13;;
7813;SDS011;3952;48.364;16.022;2023-10-19T03:41:36;15.37;;;13.90;;
7813;SDS011;3952;48.364;16.022;2023-10-19T03:44:04;16.23;;;14.17;;
7813;SDS011;3952;48.364;16.022;2023-10-19T03:46:38;14.77;;;13.37;;
7813;SDS011;3952;48.364;16.022;2023-10-19T03:49:18;16.43;;;14.37;;
7813;SDS011;3952;48.364;16.022;2023-10-19T03:51:47;17.93;;;16.13;;
7813;SDS011;3952;48.364;16.022;2023-10-19T03:54:45;15.57;;;13.97;;
7813;SDS011;3952;48.364;16.022;2023-10-19T03:57:13;15.80;;;14.37;;
7813;SDS011;3952;48.364;16.022;2023-10-19T03:59:44;16.00;;;14.30;;
7813;SDS011;3952;48.364;16.022;2023-10-19T04:02:15;16.10;;;14.53;;
7813;SDS011;3952;48.364;16.022;2023-10-19T04:04:45;17.97;;;14.83;;
7813;SDS011;3952;48.364;16.022;2023-10-19T04:07:15;15.83;;;14.33;;
7813;SDS011;3952;48.364;16.022;2023-10-19T04:09:46;16.13;;;14.73;;
7813;SDS011;3952;48.364;16.022;2023-10-19T04:12:25;15.00;;;13.50;;
7813;SDS011;3952;48.364;16.022;2023-10-19T04:14:56;14.87;;;13.40;;
7813;SDS011;3952;48.364;16.022;2023-10-19T04:17:34;14.13;;;13.00;;
7813;SDS011;3952;48.364;16.022;2023-10-19T04:20:02;14.80;;;13.50;;
7813;SDS011;3952;48.364;16.022;2023-10-19T04:22:53;14.13;;;12.90;;
7813;SDS011;3952;48.364;16.022;2023-10-19T04:25:21;16.47;;;14.77;;
7813;SDS011;3952;48.364;16.022;2023-10-19T04:27:51;15.80;;;14.23;;
7813;SDS011;3952;48.364;16.022;2023-10-19T04:30:18;14.90;;;13.50;;
7813;SDS011;3952;48.364;16.022;2023-10-19T04:32:49;14.60;;;13.30;;
7813;SDS011;3952;48.364;16.022;2023-10-19T04:35:17;15.97;;;14.47;;
7813;SDS011;3952;48.364;16.022;2023-10-19T04:37:48;16.43;;;14.73;;
7813;SDS011;3952;48.364;16.022;2023-10-19T04:40:17;17.20;;;15.00;;
7813;SDS011;3952;48.364;16.022;2023-10-19T04:42:44;15.43;;;14.13;;
7813;SDS011;3952;48.364;16.022;2023-10-19T04:45:12;16.43;;;14.93;;
7813;SDS011;3952;48.364;16.022;2023-10-19T04:47:40;16.83;;;15.33;;
7813;SDS011;3952;48.364;16.022;2023-10-19T04:50:07;17.10;;;15.40;;
7813;SDS011;3952;48.364;16.022;2023-10-19T04:52:36;16.77;;;15.13;;
7813;SDS011;3952;48.364;16.022;2023-10-19T04:55:04;18.10;;;15.47;;
7813;SDS011;3952;48.364;16.022;2023-10-19T04:57:34;18.57;;;16.17;;
7813;SDS011;3952;48.364;16.022;2023-10-19T05:00:01;16.87;;;15.17;;
7813;SDS011;3952;48.364;16.022;2023-10-19T05:02:29;17.03;;;15.40;;
7813;SDS011;3952;48.364;16.022;2023-10-19T05:04:57;17.03;;;15.13;;
7813;SDS011;3952;48.364;16.022;2023-10-19T05:07:24;18.90;;;16.07;;
7813;SDS011;3952;48.364;16.022;2023-10-19T05:09:51;16.83;;;15.17;;
7813;SDS011;3952;48.364;16.022;2023-10-19T05:12:19;16.90;;;15.30;;
7813;SDS011;3952;48.364;16.022;2023-10-19T05:14:48;17.80;;;14.87;;
7813;SDS011;3952;48.364;16.022;2023-10-19T05:17:15;14.93;;;13.67;;
7813;SDS011;3952;48.364;16.022;2023-10-19T05:19:46;16.60;;;15.20;;
7813;SDS011;3952;48.364;16.022;2023-10-19T05:22:13;19.03;;;17.13;;
7813;SDS011;3952;48.364;16.022;2023-10-19T05:24:42;17.20;;;15.40;;
7813;SDS011;3952;48.364;16.022;2023-10-19T05:27:09;17.17;;;15.60;;
7813;SDS011;3952;48.364;16.022;2023-10-19T05:29:36;16.83;;;15.30;;
7813;SDS011;3952;48.364;16.022;2023-10-19T05:32:06;17.30;;;15.57;;
7813;SDS011;3952;48.364;16.022;2023-10-19T05:34:34;17.33;;;15.73;;
7813;SDS011;3952;48.364;16.022;2023-10-19T05:37:02;18.13;;;16.43;;
7813;SDS011;3952;48.364;16.022;2023-10-19T05:39:30;19.27;;;17.13;;
7813;SDS011;3952;48.364;16.022;2023-10-19T05:41:59;18.67;;;16.87;;
7813;SDS011;3952;48.364;16.022;2023-10-19T05:44:26;20.50;;;17.33;;
7813;SDS011;3952;48.364;16.022;2023-10-19T05:46:53;19.00;;;17.10;;
7813;SDS011;3952;48.364;16.022;2023-10-19T05:49:23;19.03;;;17.13;;
7813;SDS011;3952;48.364;16.022;2023-10-19T05:51:50;16.77;;;15.23;;
7813;SDS011;3952;48.364;16.022;2023-10-19T05:54:17;18.33;;;16.50;;
7813;SDS011;3952;48.364;16.022;2023-10-19T05:56:44;19.03;;;17.03;;
7813;SDS011;3952;48.364;16.022;2023-10-19T05:59:12;18.10;;;16.37;;
7813;SDS011;3952;48.364;16.022;2023-10-19T06:01:39;17.97;;;16.13;;
7813;SDS011;3952;48.364;16.022;2023-10-19T06:04:07;19.23;;;17.33;;
7813;SDS011;3952;48.364;16.022;2023-10-19T06:06:37;24.30;;;17.13;;
7813;SDS011;3952;48.364;16.022;2023-10-19T06:09:04;18.13;;;16.63;;
7813;SDS011;3952;48.364;16.022;2023-10-19T06:11:33;18.27;;;16.53;;
7813;SDS011;3952;48.364;16.022;2023-10-19T06:14:03;18.33;;;16.63;;
7813;SDS011;3952;48.364;16.022;2023-10-19T06:16:32;19.27;;;17.27;;
7813;SDS011;3952;48.364;16.022;2023-10-19T06:19:00;24.30;;;17.73;;
7813;SDS011;3952;48.364;16.022;2023-10-19T06:21:28;18.93;;;17.03;;
7813;SDS011;3952;48.364;16.022;2023-10-19T06:23:58;19.40;;;17.57;;
7813;SDS011;3952;48.364;16.022;2023-10-19T06:26:25;19.50;;;17.70;;
7813;SDS011;3952;48.364;16.022;2023-10-19T06:28:52;21.03;;;19.00;;
7813;SDS011;3952;48.364;16.022;2023-10-19T06:31:23;25.37;;;18.47;;
7813;SDS011;3952;48.364;16.022;2023-10-19T06:33:51;19.07;;;17.17;;
7813;SDS011;3952;48.364;16.022;2023-10-19T06:36:18;19.10;;;17.23;;
7813;SDS011;3952;48.364;16.022;2023-10-19T06:38:46;20.33;;;18.23;;
7813;SDS011;3952;48.364;16.022;2023-10-19T06:41:17;20.83;;;17.60;;
7813;SDS011;3952;48.364;16.022;2023-10-19T06:43:44;20.03;;;18.03;;
7813;SDS011;3952;48.364;16.022;2023-10-19T06:46:12;21.03;;;19.03;;
7813;SDS011;3952;48.364;16.022;2023-10-19T06:48:40;20.37;;;18.50;;
7813;SDS011;3952;48.364;16.022;2023-10-19T06:51:07;20.93;;;18.77;;
7813;SDS011;3952;48.364;16.022;2023-10-19T06:53:35;22.10;;;19.77;;
7813;SDS011;3952;48.364;16.022;2023-10-19T06:56:02;21.10;;;18.90;;
7813;SDS011;3952;48.364;16.022;2023-10-19T06:58:32;21.83;;;19.53;;
7813;SDS011;3952;48.364;16.022;2023-10-19T07:00:59;20.80;;;18.90;;
7813;SDS011;3952;48.364;16.022;2023-10-19T07:03:30;19.77;;;18.07;;
7813;SDS011;3952;48.364;16.022;2023-10-19T07:05:58;21.07;;;18.97;;
7813;SDS011;3952;48.364;16.022;2023-10-19T07:08:25;20.30;;;18.33;;
7813;SDS011;3952;48.364;16.022;2023-10-19T07:10:53;20.67;;;18.63;;
7813;SDS011;3952;48.364;16.022;2023-10-19T07:13:20;19.67;;;17.67;;
7813;SDS011;3952;48.364;16.022;2023-10-19T07:15:49;19.67;;;17.67;;
7813;SDS011;3952;48.364;16.022;2023-10-19T07:18:16;22.37;;;19.93;;
7813;SDS011;3952;48.364;16.022;2023-10-19T07:20:44;21.60;;;19.27;;
7813;SDS011;3952;48.364;16.022;2023-10-19T07:23:13;20.17;;;18.37;;
7813;SDS011;3952;48.364;16.022;2023-10-19T07:25:45;20.13;;;18.23;;
7813;SDS011;3952;48.364;16.022;2023-10-19T07:28:13;21.43;;;19.43;;
7813;SDS011;3952;48.364;16.022;2023-10-19T07:30:41;21.33;;;19.23;;
7813;SDS011;3952;48.364;16.022;2023-10-19T07:33:10;21.07;;;18.90;;
7813;SDS011;3952;48.364;16.022;2023-10-19T07:35:42;21.13;;;19.03;;
7813;SDS011;3952;48.364;16.022;2023-10-19T07:38:12;20.70;;;18.20;;
7813;SDS011;3952;48.364;16.022;2023-10-19T07:40:40;21.60;;;19.70;;
7813;SDS011;3952;48.364;16.022;2023-10-19T07:43:08;22.57;;;20.07;;
7813;SDS011;3952;48.364;16.022;2023-10-19T07:45:36;23.57;;;21.17;;
7813;SDS011;3952;48.364;16.022;2023-10-19T07:48:03;22.57;;;20.50;;
7813;SDS011;3952;48.364;16.022;2023-10-19T07:50:34;23.43;;;20.93;;
7813;SDS011;3952;48.364;16.022;2023-10-19T07:53:01;23.70;;;20.27;;
7813;SDS011;3952;48.364;16.022;2023-10-19T07:55:29;22.63;;;20.23;;
7813;SDS011;3952;48.364;16.022;2023-10-19T07:57:58;23.73;;;21.33;;
7813;SDS011;3952;48.364;16.022;2023-10-19T08:00:27;23.77;;;21.13;;
7813;SDS011;3952;48.364;16.022;2023-10-19T08:02:56;23.47;;;20.97;;
7813;SDS011;3952;48.364;16.022;2023-10-19T08:05:23;23.20;;;20.93;;
7813;SDS011;3952;48.364;16.022;2023-10-19T08:07:52;23.00;;;20.53;;
7813;SDS011;3952;48.364;16.022;2023-10-19T08:10:22;23.60;;;21.27;;
7813;SDS011;3952;48.364;16.022;2023-10-19T08:12:50;23.97;;;21.47;;
7813;SDS011;3952;48.364;16.022;2023-10-19T08:15:17;26.63;;;21.93;;
7813;SDS011;3952;48.364;16.022;2023-10-19T08:17:46;28.07;;;22.63;;
7813;SDS011;3952;48.364;16.022;2023-10-19T08:20:15;25.27;;;21.30;;
7813;SDS011;3952;48.364;16.022;2023-10-19T08:22:48;24.53;;;21.43;;
7813;SDS011;3952;48.364;16.022;2023-10-19T08:25:17;26.40;;;22.70;;
7813;SDS011;3952;48.364;16.022;2023-10-19T08:27:44;24.50;;;21.97;;
7813;SDS011;3952;48.364;16.022;2023-10-19T08:30:15;25.00;;;22.20;;
7813;SDS011;3952;48.364;16.022;2023-10-19T08:32:44;25.73;;;22.17;;
7813;SDS011;3952;48.364;16.022;2023-10-19T08:35:13;25.83;;;22.83;;
7813;SDS011;3952;48.364;16.022;2023-10-19T08:37:41;24.93;;;22.40;;
7813;SDS011;3952;48.364;16.022;2023-10-19T08:40:09;24.40;;;21.90;;
7813;SDS011;3952;48.364;16.022;2023-10-19T08:42:41;24.67;;;22.20;;
7813;SDS011;3952;48.364;16.022;2023-10-19T08:45:10;24.83;;;22.20;;
7813;SDS011;3952;48.364;16.022;2023-10-19T08:47:40;23.73;;;21.23;;
7813;SDS011;3952;48.364;16.022;2023-10-19T08:50:15;23.47;;;21.17;;
7813;SDS011;3952;48.364;16.022;2023-10-19T08:52:48;23.60;;;21.10;;
7813;SDS011;3952;48.364;16.022;2023-10-19T08:55:18;24.17;;;21.83;;
7813;SDS011;3952;48.364;16.022;2023-10-19T08:57:47;24.00;;;21.60;;
7813;SDS011;3952;48.364;16.022;2023-10-19T09:00:16;24.93;;;22.27;;
7813;SDS011;3952;48.364;16.022;2023-10-19T09:02:44;25.13;;;22.73;;
7813;SDS011;3952;48.364;16.022;2023-10-19T09:05:11;25.23;;;22.63;;
7813;SDS011;3952;48.364;16.022;2023-10-19T09:07:45;25.33;;;22.63;;
7813;SDS011;3952;48.364;16.022;2023-10-19T09:10:19;25.27;;;22.67;;
7813;SDS011;3952;48.364;16.022;2023-10-19T09:12:58;25.43;;;22.93;;
7813;SDS011;3952;48.364;16.022;2023-10-19T09:15:27;27.90;;;23.60;;
7813;SDS011;3952;48.364;16.022;2023-10-19T09:17:56;26.40;;;23.53;;
7813;SDS011;3952;48.364;16.022;2023-10-19T09:20:23;25.07;;;22.37;;
7813;SDS011;3952;48.364;16.022;2023-10-19T09:22:53;25.33;;;22.70;;
7813;SDS011;3952;48.364;16.022;2023-10-19T09:25:23;27.57;;;24.20;;
7813;SDS011;3952;48.364;16.022;2023-10-19T09:27:50;25.37;;;22.67;;
7813;SDS011;3952;48.364;16.022;2023-10-19T09:30:19;25.70;;;23.07;;
7813;SDS011;3952;48.364;16.022;2023-10-19T09:32:48;25.90;;;23.13;;
7813;SDS011;3952;48.364;16.022;2023-10-19T09:35:19;25.90;;;23.10;;
7813;SDS011;3952;48.364;16.022;2023-10-19T09:37:47;26.23;;;23.60;;
7813;SDS011;3952;48.364;16.022;2023-10-19T09:40:14;25.83;;;23.10;;
7813;SDS011;3952;48.364;16.022;2023-10-19T09:42:43;24.30;;;21.80;;
7813;SDS011;3952;48.364;16.022;2023-10-19T09:45:13;24.03;;;21.70;;
7813;SDS011;3952;48.364;16.022;2023-10-19T09:47:49;23.57;;;21.43;;
7813;SDS011;3952;48.364;16.022;2023-10-19T09:50:19;26.33;;;23.53;;
7813;SDS011;3952;48.364;16.022;2023-10-19T09:52:46;25.10;;;22.33;;
7813;SDS011;3952;48.364;16.022;2023-10-19T09:55:16;26.67;;;23.50;;
7813;SDS011;3952;48.364;16.022;2023-10-19T09:57:50;25.43;;;22.77;;
7813;SDS011;3952;48.364;16.022;2023-10-19T10:00:21;26.17;;;22.73;;
7813;SDS011;3952;48.364;16.022;2023-10-19T10:02:50;25.57;;;22.87;;
7813;SDS011;3952;48.364;16.022;2023-10-19T10:08:32;24.73;;;22.07;;
7813;SDS011;3952;48.364;16.022;2023-10-19T10:11:16;25.10;;;22.60;;
7813;SDS011;3952;48.364;16.022;2023-10-19T10:13:45;24.90;;;22.30;;
7813;SDS011;3952;48.364;16.022;2023-10-19T10:16:17;25.03;;;22.40;;
7813;SDS011;3952;48.364;16.022;2023-10-19T10:18:46;24.73;;;22.07;;
7813;SDS011;3952;48.364;16.022;2023-10-19T10:21:16;25.30;;;22.50;;
7813;SDS011;3952;48.364;16.022;2023-10-19T10:23:47;23.23;;;21.03;;
7813;SDS011;3952;48.364;16.022;2023-10-19T10:26:15;25.40;;;22.90;;
7813;SDS011;3952;48.364;16.022;2023-10-19T10:28:47;24.43;;;22.13;;
7813;SDS011;3952;48.364;16.022;2023-10-19T10:31:21;27.20;;;24.20;;
7813;SDS011;3952;48.364;16.022;2023-10-19T10:33:49;24.27;;;22.00;;
7813;SDS011;3952;48.364;16.022;2023-10-19T10:36:19;25.57;;;23.07;;
7813;SDS011;3952;48.364;16.022;2023-10-19T10:38:48;25.23;;;22.23;;
7813;SDS011;3952;48.364;16.022;2023-10-19T10:41:19;26.60;;;23.83;;
7813;SDS011;3952;48.364;16.022;2023-10-19T10:43:50;25.37;;;22.87;;
7813;SDS011;3952;48.364;16.022;2023-10-19T10:46:21;24.30;;;21.43;;
7813;SDS011;3952;48.364;16.022;2023-10-19T10:48:49;25.90;;;23.40;;
7813;SDS011;3952;48.364;16.022;2023-10-19T10:51:18;24.90;;;22.47;;
7813;SDS011;3952;48.364;16.022;2023-10-19T10:53:48;24.23;;;21.83;;
7813;SDS011;3952;48.364;16.022;2023-10-19T10:56:16;24.90;;;22.30;;
7813;SDS011;3952;48.364;16.022;2023-10-19T10:58:44;23.20;;;20.97;;
7813;SDS011;3952;48.364;16.022;2023-10-19T11:01:12;24.70;;;22.10;;
7813;SDS011;3952;48.364;16.022;2023-10-19T11:03:41;25.23;;;22.73;;
7813;SDS011;3952;48.364;16.022;2023-10-19T11:06:08;25.70;;;22.90;;
7813;SDS011;3952;48.364;16.022;2023-10-19T11:08:37;26.97;;;23.97;;
7813;SDS011;3952;48.364;16.022;2023-10-19T11:11:05;26.47;;;23.87;;
7813;SDS011;3952;48.364;16.022;2023-10-19T11:13:36;26.03;;;23.33;;
7813;SDS011;3952;48.364;16.022;2023-10-19T11:16:04;27.47;;;24.60;;
7813;SDS011;3952;48.364;16.022;2023-10-19T11:18:35;26.63;;;23.93;;
7813;SDS011;3952;48.364;16.022;2023-10-19T11:21:07;29.77;;;26.73;;
7813;SDS011;3952;48.364;16.022;2023-10-19T11:23:37;27.40;;;24.53;;
7813;SDS011;3952;48.364;16.022;2023-10-19T11:26:05;26.00;;;23.40;;
7813;SDS011;3952;48.364;16.022;2023-10-19T11:28:33;24.50;;;22.20;;
7813;SDS011;3952;48.364;16.022;2023-10-19T11:31:11;24.40;;;22.10;;
7813;SDS011;3952;48.364;16.022;2023-10-19T11:33:42;25.17;;;22.50;;
7813;SDS011;3952;48.364;16.022;2023-10-19T11:36:12;24.27;;;21.43;;
7813;SDS011;3952;48.364;16.022;2023-10-19T11:38:40;23.87;;;21.43;;
7813;SDS011;3952;48.364;16.022;2023-10-19T11:41:07;23.80;;;21.37;;
7813;SDS011;3952;48.364;16.022;2023-10-19T11:43:35;22.57;;;20.60;;
7813;SDS011;3952;48.364;16.022;2023-10-19T11:46:02;23.87;;;21.47;;
7813;SDS011;3952;48.364;16.022;2023-10-19T11:48:31;23.00;;;20.90;;
7813;SDS011;3952;48.364;16.022;2023-10-19T11:50:59;22.13;;;20.17;;
7813;SDS011;3952;48.364;16.022;2023-10-19T11:53:30;22.13;;;20.03;;
7813;SDS011;3952;48.364;16.022;2023-10-19T11:56:00;23.23;;;20.97;;
7813;SDS011;3952;48.364;16.022;2023-10-19T11:58:29;22.93;;;20.63;;
7813;SDS011;3952;48.364;16.022;2023-10-19T12:00:58;22.23;;;20.13;;
7813;SDS011;3952;48.364;16.022;2023-10-19T12:03:25;22.53;;;20.43;;
7813;SDS011;3952;48.364;16.022;2023-10-19T12:05:53;24.63;;;21.77;;
7813;SDS011;3952;48.364;16.022;2023-10-19T12:08:21;25.13;;;22.63;;
7813;SDS011;3952;48.364;16.022;2023-10-19T12:10:50;31.70;;;24.33;;
7813;SDS011;3952;48.364;16.022;2023-10-19T12:13:18;23.97;;;21.67;;
7813;SDS011;3952;48.364;16.022;2023-10-19T12:15:45;23.70;;;21.33;;
7813;SDS011;3952;48.364;16.022;2023-10-19T12:18:18;22.70;;;20.67;;
7813;SDS011;3952;48.364;16.022;2023-10-19T12:20:46;22.63;;;20.53;;
7813;SDS011;3952;48.364;16.022;2023-10-19T12:23:14;22.70;;;20.50;;
7813;SDS011;3952;48.364;16.022;2023-10-19T12:25:41;26.57;;;20.17;;
7813;SDS011;3952;48.364;16.022;2023-10-19T12:28:10;22.13;;;20.13;;
7813;SDS011;3952;48.364;16.022;2023-10-19T12:30:42;23.20;;;21.07;;
7813;SDS011;3952;48.364;16.022;2023-10-19T12:33:10;21.57;;;19.60;;
7813;SDS011;3952;48.364;16.022;2023-10-19T12:35:41;21.73;;;19.90;;
7813;SDS011;3952;48.364;16.022;2023-10-19T12:38:11;21.70;;;19.37;;
7813;SDS011;3952;48.364;16.022;2023-10-19T12:40:44;20.73;;;18.93;;
7813;SDS011;3952;48.364;16.022;2023-10-19T12:43:14;20.83;;;19.00;;
7813;SDS011;3952;48.364;16.022;2023-10-19T12:45:44;20.47;;;18.67;;
7813;SDS011;3952;48.364;16.022;2023-10-19T12:48:16;21.40;;;19.20;;
7813;SDS011;3952;48.364;16.022;2023-10-19T12:50:43;22.00;;;19.87;;
7813;SDS011;3952;48.364;16.022;2023-10-19T12:53:11;20.43;;;18.83;;
7813;SDS011;3952;48.364;16.022;2023-10-19T12:55:39;24.97;;;20.27;;
7813;SDS011;3952;48.364;16.022;2023-10-19T12:58:08;22.40;;;20.20;;
7813;SDS011;3952;48.364;16.022;2023-10-19T13:00:38;20.90;;;18.90;;
7813;SDS011;3952;48.364;16.022;2023-10-19T13:03:09;20.73;;;18.93;;
7813;SDS011;3952;48.364;16.022;2023-10-19T13:05:39;22.20;;;19.90;;
7813;SDS011;3952;48.364;16.022;2023-10-19T13:08:09;21.47;;;19.63;;
7813;SDS011;3952;48.364;16.022;2023-10-19T13:10:39;21.50;;;19.57;;
7813;SDS011;3952;48.364;16.022;2023-10-19T13:13:08;20.13;;;18.33;;
7813;SDS011;3952;48.364;16.022;2023-10-19T13:15:40;19.53;;;17.90;;
7813;SDS011;3952;48.364;16.022;2023-10-19T13:18:09;22.67;;;18.33;;
7813;SDS011;3952;48.364;16.022;2023-10-19T13:20:38;19.93;;;18.20;;
7813;SDS011;3952;48.364;16.022;2023-10-19T13:23:09;19.87;;;18.20;;
7813;SDS011;3952;48.364;16.022;2023-10-19T13:25:38;20.30;;;18.53;;
7813;SDS011;3952;48.364;16.022;2023-10-19T13:28:09;19.63;;;17.73;;
7813;SDS011;3952;48.364;16.022;2023-10-19T13:30:43;19.33;;;17.60;;
7813;SDS011;3952;48.364;16.022;2023-10-19T13:33:13;20.50;;;18.60;;
7813;SDS011;3952;48.364;16.022;2023-10-19T13:35:41;18.80;;;17.20;;
7813;SDS011;3952;48.364;16.022;2023-10-19T13:38:10;18.67;;;17.00;;
7813;SDS011;3952;48.364;16.022;2023-10-19T13:40:39;18.37;;;16.87;;
7813;SDS011;3952;48.364;16.022;2023-10-19T13:43:07;20.47;;;18.70;;
7813;SDS011;3952;48.364;16.022;2023-10-19T13:45:39;18.57;;;17.13;;
7813;SDS011;3952;48.364;16.022;2023-10-19T13:48:10;19.40;;;17.70;;
7813;SDS011;3952;48.364;16.022;2023-10-19T13:50:40;18.87;;;17.20;;
7813;SDS011;3952;48.364;16.022;2023-10-19T13:53:09;20.43;;;18.30;;
7813;SDS011;3952;48.364;16.022;2023-10-19T13:55:36;19.20;;;17.50;;
7813;SDS011;3952;48.364;16.022;2023-10-19T13:58:04;19.63;;;17.83;;
7813;SDS011;3952;48.364;16.022;2023-10-19T14:00:32;17.33;;;16.10;;
7813;SDS011;3952;48.364;16.022;2023-10-19T14:03:06;18.10;;;16.73;;
7813;SDS011;3952;48.364;16.022;2023-10-19T14:05:37;18.67;;;16.77;;
7813;SDS011;3952;48.364;16.022;2023-10-19T14:08:05;20.73;;;18.73;;
7813;SDS011;3952;48.364;16.022;2023-10-19T14:10:33;19.37;;;17.77;;
7813;SDS011;3952;48.364;16.022;2023-10-19T14:13:01;18.70;;;16.70;;
7813;SDS011;3952;48.364;16.022;2023-10-19T14:15:30;19.43;;;17.53;;
7813;SDS011;3952;48.364;16.022;2023-10-19T14:17:59;18.20;;;16.70;;
7813;SDS011;3952;48.364;16.022;2023-10-19T14:20:28;21.43;;;19.30;;
7813;SDS011;3952;48.364;16.022;2023-10-19T14:22:57;20.70;;;18.17;;
7813;SDS011;3952;48.364;16.022;2023-10-19T14:25:25;19.17;;;17.30;;
7813;SDS011;3952;48.364;16.022;2023-10-19T14:27:54;16.47;;;15.17;;
7813;SDS011;3952;48.364;16.022;2023-10-19T14:30:24;16.90;;;15.60;;
7813;SDS011;3952;48.364;16.022;2023-10-19T14:32:53;17.20;;;15.80;;
7813;SDS011;3952;48.364;16.022;2023-10-19T14:35:21;16.80;;;15.50;;
7813;SDS011;3952;48.364;16.022;2023-10-19T14:37:50;16.33;;;15.13;;
7813;SDS011;3952;48.364;16.022;2023-10-19T14:40:21;16.77;;;15.47;;
7813;SDS011;3952;48.364;16.022;2023-10-19T14:42:51;16.83;;;15.50;;
7813;SDS011;3952;48.364;16.022;2023-10-19T14:45:20;16.40;;;15.10;;
7813;SDS011;3952;48.364;16.022;2023-10-19T14:47:51;16.97;;;15.40;;
7813;SDS011;3952;48.364;16.022;2023-10-19T14:50:20;17.83;;;16.20;;